Time;durP1;ratioP1;P1;durP2;ratioP2;P2;SDS_P1;SDS_P2;PMS_P1;PMS_P2;Temp;Humidity;BMP_temperature;BMP_pressure;BME280_temperature;BME280_humidity;BME280_pressure;Samples;Min_cycle;Max_cycle;Signal;HPM_P1;HPM_P2
2023/09/23 00:01:05;;;;;;;3.83;1.15;;;;;;;;;;5092606;28;20480;-69
2023/09/23 00:03:33;;;;;;;1.92;0.95;;;;;;;;;;5092808;28;20036;-68
2023/09/23 00:06:03;;;;;;;3.72;1.10;;;;;;;;;;5092633;28;20042;-69
2023/09/23 00:08:30;;;;;;;3.72;0.90;;;;;;;;;;5092565;28;20013;-69
2023/09/23 00:10:56;;;;;;;1.65;0.90;;;;;;;;;;5092472;28;20027;-69
2023/09/23 00:13:22;;;;;;;1.10;0.70;;;;;;;;;;5092385;28;20016;-69
2023/09/23 00:15:52;;;;;;;6.22;1.27;;;;;;;;;;5094960;28;20028;-69
2023/09/23 00:18:18;;;;;;;2.95;0.80;;;;;;;;;;5096549;28;20484;-69
2023/09/23 00:20:46;;;;;;;3.35;0.80;;;;;;;;;;5096844;28;20027;-69
2023/09/23 00:23:13;;;;;;;4.40;1.13;;;;;;;;;;5096392;28;20030;-69
2023/09/23 00:25:40;;;;;;;4.90;0.80;;;;;;;;;;5096439;28;20036;-69
2023/09/23 00:28:11;;;;;;;4.72;1.83;;;;;;;;;;5078019;28;20384;-69
2023/09/23 00:30:38;;;;;;;4.47;0.80;;;;;;;;;;5096379;28;20028;-69
2023/09/23 00:33:05;;;;;;;2.58;0.98;;;;;;;;;;5096570;28;20476;-69
2023/09/23 00:35:34;;;;;;;4.55;1.00;;;;;;;;;;5078152;28;20044;-69
2023/09/23 00:38:01;;;;;;;1.08;0.70;;;;;;;;;;5095888;28;20020;-69
2023/09/23 00:40:32;;;;;;;1.98;0.80;;;;;;;;;;5096145;28;20028;-69
2023/09/23 00:43:05;;;;;;;2.05;0.90;;;;;;;;;;5095964;28;20028;-69
2023/09/23 00:45:33;;;;;;;4.13;0.73;;;;;;;;;;5095991;28;20036;-69
2023/09/23 00:48:00;;;;;;;4.07;1.02;;;;;;;;;;5095969;28;20020;-69
2023/09/23 00:50:29;;;;;;;3.53;0.98;;;;;;;;;;5078142;28;20038;-69
2023/09/23 00:52:55;;;;;;;2.92;0.88;;;;;;;;;;5095524;28;20046;-69
2023/09/23 00:55:24;;;;;;;4.07;0.95;;;;;;;;;;5077800;28;20028;-69
2023/09/23 00:57:55;;;;;;;3.47;1.02;;;;;;;;;;5095765;28;20034;-70
2023/09/23 01:00:25;;;;;;;2.38;0.85;;;;;;;;;;5078123;28;20028;-69
2023/09/23 01:02:59;;;;;;;7.72;1.27;;;;;;;;;;5095648;28;20396;-68
2023/09/23 01:05:29;;;;;;;3.03;1.00;;;;;;;;;;5077560;28;20032;-69
2023/09/23 01:08:00;;;;;;;4.95;1.00;;;;;;;;;;5095301;28;20419;-68
2023/09/23 01:10:28;;;;;;;5.10;1.23;;;;;;;;;;5095572;28;20031;-69
2023/09/23 01:12:54;;;;;;;3.17;0.90;;;;;;;;;;5095814;28;20058;-69
2023/09/23 01:15:25;;;;;;;2.97;0.90;;;;;;;;;;5077230;28;20488;-69
2023/09/23 01:17:53;;;;;;;2.22;0.90;;;;;;;;;;5095343;28;20024;-69
2023/09/23 01:20:20;;;;;;;2.92;0.75;;;;;;;;;;5095411;28;20028;-69
2023/09/23 01:22:47;;;;;;;6.05;1.10;;;;;;;;;;5094951;28;20024;-69
2023/09/23 01:25:17;;;;;;;6.13;0.80;;;;;;;;;;5077299;28;20024;-69
2023/09/23 01:27:43;;;;;;;3.22;0.82;;;;;;;;;;5094903;28;20030;-68
2023/09/23 01:30:12;;;;;;;3.38;1.08;;;;;;;;;;5095251;28;20028;-69
2023/09/23 01:32:52;;;;;;;5.45;0.80;;;;;;;;;;5095122;28;20023;-69
2023/09/23 01:35:20;;;;;;;4.53;0.93;;;;;;;;;;5094782;28;20054;-69
2023/09/23 01:37:47;;;;;;;1.70;0.77;;;;;;;;;;5094946;28;20085;-69
2023/09/23 01:40:17;;;;;;;2.60;0.95;;;;;;;;;;5094979;28;20388;-69
2023/09/23 01:42:48;;;;;;;3.58;0.90;;;;;;;;;;5094946;28;20426;-68
2023/09/23 01:45:15;;;;;;;7.43;1.05;;;;;;;;;;5094914;28;20016;-69
2023/09/23 01:47:41;;;;;;;2.85;0.90;;;;;;;;;;5094827;28;20039;-68
2023/09/23 01:50:13;;;;;;;3.47;1.10;;;;;;;;;;5094799;28;20414;-68
2023/09/23 01:52:43;;;;;;;1.27;0.77;;;;;;;;;;5094599;28;20043;-69
2023/09/23 01:55:13;;;;;;;2.55;0.95;;;;;;;;;;5094695;28;20514;-68
2023/09/23 01:57:39;;;;;;;3.13;0.70;;;;;;;;;;5094916;28;20031;-69
2023/09/23 02:00:07;;;;;;;3.25;0.90;;;;;;;;;;5094849;28;20020;-69
2023/09/23 02:02:34;;;;;;;4.43;0.98;;;;;;;;;;5094789;28;20016;-69
2023/09/23 02:05:00;;;;;;;4.60;0.90;;;;;;;;;;5094179;28;20030;-68
2023/09/23 02:07:26;;;;;;;1.60;0.77;;;;;;;;;;5094441;28;20024;-69
2023/09/23 02:09:53;;;;;;;2.20;0.88;;;;;;;;;;5094401;28;20396;-69
2023/09/23 02:12:21;;;;;;;4.28;0.90;;;;;;;;;;5094689;28;20023;-69
2023/09/23 02:14:47;;;;;;;1.88;1.00;;;;;;;;;;5094232;28;20032;-69
2023/09/23 02:17:13;;;;;;;2.22;0.90;;;;;;;;;;5094302;28;20472;-69
2023/09/23 02:19:40;;;;;;;3.10;1.00;;;;;;;;;;5094048;28;20020;-69
2023/09/23 02:22:06;;;;;;;4.43;1.02;;;;;;;;;;5076158;28;20213;-69
2023/09/23 02:24:40;;;;;;;6.32;1.00;;;;;;;;;;5094029;28;20117;-68
2023/09/23 02:27:06;;;;;;;4.30;0.90;;;;;;;;;;5093941;28;20020;-69
2023/09/23 02:29:33;;;;;;;3.97;0.90;;;;;;;;;;5094475;28;20024;-69
2023/09/23 02:32:00;;;;;;;2.88;0.98;;;;;;;;;;5092712;28;20020;-68
2023/09/23 02:34:30;;;;;;;2.80;1.10;;;;;;;;;;5093473;28;20511;-68
2023/09/23 02:36:56;;;;;;;2.05;0.98;;;;;;;;;;5093586;28;20543;-69
2023/09/23 02:39:23;;;;;;;5.55;1.05;;;;;;;;;;5093316;28;20036;-69
2023/09/23 02:41:50;;;;;;;1.73;0.70;;;;;;;;;;5093839;28;20018;-68
2023/09/23 02:44:22;;;;;;;1.75;0.75;;;;;;;;;;5093795;28;20024;-69
2023/09/23 02:46:55;;;;;;;3.22;0.85;;;;;;;;;;5093700;28;20473;-69
2023/09/23 02:49:21;;;;;;;3.85;0.90;;;;;;;;;;5093267;28;20038;-69
2023/09/23 02:51:49;;;;;;;1.95;0.75;;;;;;;;;;5075511;28;20036;-69
2023/09/23 02:54:17;;;;;;;1.83;0.80;;;;;;;;;;5093371;28;20044;-68
2023/09/23 02:56:48;;;;;;;2.65;1.00;;;;;;;;;;5093516;28;20058;-69
2023/09/23 02:59:15;;;;;;;;;;;;;;;;;;5093923;28;20022;-69
2023/09/23 03:01:45;;;;;;;3.85;1.25;;;;;;;;;;5093605;28;20390;-69
2023/09/23 03:04:16;;;;;;;14.43;1.10;;;;;;;;;;5093099;28;20024;-69
2023/09/23 03:06:43;;;;;;;;;;;;;;;;;;5075639;28;20020;-69
2023/09/23 03:09:10;;;;;;;2.40;1.00;;;;;;;;;;5093338;28;20291;-68
2023/09/23 03:11:47;;;;;;;5.38;1.05;;;;;;;;;;5093320;28;20020;-69
2023/09/23 03:14:18;;;;;;;2.85;1.00;;;;;;;;;;5093181;28;20046;-69
2023/09/23 03:16:49;;;;;;;2.80;1.10;;;;;;;;;;5093084;28;20026;-69
2023/09/23 03:19:15;;;;;;;3.65;0.90;;;;;;;;;;5093062;28;20027;-68
2023/09/23 03:21:45;;;;;;;8.27;1.10;;;;;;;;;;5093210;28;20498;-68
2023/09/23 03:24:11;;;;;;;2.63;1.30;;;;;;;;;;5093100;28;20388;-69
2023/09/23 03:26:37;;;;;;;2.60;0.70;;;;;;;;;;5092964;28;20485;-68
2023/09/23 03:29:06;;;;;;;2.45;0.75;;;;;;;;;;5093329;28;20032;-69
2023/09/23 03:31:33;;;;;;;8.07;1.10;;;;;;;;;;5093354;28;20013;-69
2023/09/23 03:34:03;;;;;;;3.88;0.98;;;;;;;;;;5092647;28;20484;-68
2023/09/23 03:36:31;;;;;;;6.60;1.50;;;;;;;;;;5092856;28;20470;-69
2023/09/23 03:39:01;;;;;;;2.88;0.95;;;;;;;;;;5092945;28;20034;-69
2023/09/23 03:41:28;;;;;;;2.80;0.90;;;;;;;;;;5092900;28;20020;-68
2023/09/23 03:43:54;;;;;;;2.38;1.00;;;;;;;;;;5092775;28;20032;-69
2023/09/23 03:46:21;;;;;;;2.45;0.88;;;;;;;;;;5093073;28;20031;-68
2023/09/23 03:48:47;;;;;;;1.95;0.90;;;;;;;;;;5092196;28;20024;-69
2023/09/23 03:51:14;;;;;;;3.00;0.95;;;;;;;;;;5092568;28;20028;-69
2023/09/23 03:53:41;;;;;;;4.40;0.73;;;;;;;;;;5092274;28;20051;-68
2023/09/23 03:56:08;;;;;;;4.15;1.02;;;;;;;;;;5092735;28;20028;-69
2023/09/23 03:58:34;;;;;;;1.25;0.90;;;;;;;;;;5092813;28;20020;-69
2023/09/23 04:01:05;;;;;;;4.30;1.20;;;;;;;;;;5092288;28;20028;-68
2023/09/23 04:03:34;;;;;;;4.50;1.00;;;;;;;;;;5092542;28;20034;-69
2023/09/23 04:06:00;;;;;;;3.13;1.20;;;;;;;;;;5092520;28;20059;-68
2023/09/23 04:08:28;;;;;;;2.83;1.30;;;;;;;;;;5092851;28;20024;-69
2023/09/23 04:10:54;;;;;;;2.50;1.20;;;;;;;;;;5092557;28;20020;-69
2023/09/23 04:13:20;;;;;;;2.28;0.95;;;;;;;;;;5092744;28;20030;-69
2023/09/23 04:15:47;;;;;;;3.78;1.45;;;;;;;;;;5092114;28;20078;-69
2023/09/23 04:18:13;;;;;;;2.65;1.10;;;;;;;;;;5092757;28;20020;-69
2023/09/23 04:20:43;;;;;;;2.55;1.00;;;;;;;;;;5092493;28;20376;-69
2023/09/23 04:23:10;;;;;;;3.08;1.00;;;;;;;;;;5092484;28;20016;-69
2023/09/23 04:25:36;;;;;;;3.63;0.85;;;;;;;;;;5092458;28;20030;-69
2023/09/23 04:28:03;;;;;;;2.58;0.98;;;;;;;;;;5092109;28;20020;-69
2023/09/23 04:30:29;;;;;;;3.17;0.98;;;;;;;;;;5092107;28;20034;-68
2023/09/23 04:32:55;;;;;;;4.55;1.02;;;;;;;;;;5074490;28;20040;-69
2023/09/23 04:35:22;;;;;;;7.38;0.93;;;;;;;;;;5092211;28;20032;-69
2023/09/23 04:37:49;;;;;;;2.35;0.90;;;;;;;;;;5092265;28;20395;-69
2023/09/23 04:40:15;;;;;;;2.95;1.00;;;;;;;;;;5092431;28;20020;-69
2023/09/23 04:42:42;;;;;;;2.42;0.90;;;;;;;;;;5092512;28;20035;-68
2023/09/23 04:45:10;;;;;;;2.55;0.80;;;;;;;;;;5091950;28;20434;-69
2023/09/23 04:47:37;;;;;;;4.70;0.80;;;;;;;;;;5092123;28;20491;-68
2023/09/23 04:50:04;;;;;;;1.85;1.00;;;;;;;;;;5092223;28;20028;-69
2023/09/23 04:52:32;;;;;;;4.05;1.00;;;;;;;;;;5092113;28;20020;-69
2023/09/23 04:54:58;;;;;;;2.75;0.93;;;;;;;;;;5092089;28;20058;-69
2023/09/23 04:57:24;;;;;;;6.82;1.42;;;;;;;;;;5092119;28;20373;-69
2023/09/23 04:59:54;;;;;;;2.30;0.95;;;;;;;;;;5091773;28;20020;-68
2023/09/23 05:02:21;;;;;;;3.63;1.00;;;;;;;;;;5094977;28;20020;-68
2023/09/23 05:04:53;;;;;;;2.05;0.90;;;;;;;;;;5095689;28;20036;-68
2023/09/23 05:07:20;;;;;;;7.70;0.88;;;;;;;;;;5095631;28;20012;-69
2023/09/23 05:09:46;;;;;;;4.18;1.33;;;;;;;;;;5095747;28;20024;-69
2023/09/23 05:12:14;;;;;;;3.10;1.20;;;;;;;;;;5095926;28;20016;-69
2023/09/23 05:14:42;;;;;;;2.92;1.23;;;;;;;;;;5095047;28;20044;-68
2023/09/23 05:17:10;;;;;;;3.35;1.02;;;;;;;;;;5095749;28;20016;-68
2023/09/23 05:19:36;;;;;;;3.20;1.30;;;;;;;;;;5095523;28;20027;-69
2023/09/23 05:22:03;;;;;;;2.95;1.02;;;;;;;;;;5095377;28;20026;-69
2023/09/23 05:24:29;;;;;;;2.88;0.98;;;;;;;;;;5095386;28;20492;-69
2023/09/23 05:26:56;;;;;;;4.53;1.10;;;;;;;;;;5095165;28;20030;-69
2023/09/23 05:29:26;;;;;;;4.63;0.95;;;;;;;;;;5095177;28;20042;-69
2023/09/23 05:31:53;;;;;;;1.85;0.82;;;;;;;;;;5095238;28;20031;-69
2023/09/23 05:34:19;;;;;;;5.13;1.30;;;;;;;;;;5095136;28;20081;-69
2023/09/23 05:36:46;;;;;;;4.93;1.38;;;;;;;;;;5095105;28;20605;-69
2023/09/23 05:39:14;;;;;;;5.10;1.35;;;;;;;;;;5095010;28;20038;-69
2023/09/23 05:41:41;;;;;;;5.40;0.90;;;;;;;;;;5095003;28;20024;-68
2023/09/23 05:44:08;;;;;;;1.50;0.90;;;;;;;;;;5094813;28;20032;-68
2023/09/23 05:46:42;;;;;;;1.27;0.77;;;;;;;;;;5095157;28;20032;-68
2023/09/23 05:49:14;;;;;;;3.38;1.10;;;;;;;;;;5094921;28;20072;-68
2023/09/23 05:51:40;;;;;;;5.82;1.00;;;;;;;;;;5076660;28;20032;-68
2023/09/23 05:54:10;;;;;;;1.73;0.95;;;;;;;;;;5094571;28;20050;-69
2023/09/23 05:56:36;;;;;;;5.25;1.27;;;;;;;;;;5094632;28;20030;-69
2023/09/23 05:59:02;;;;;;;3.67;1.35;;;;;;;;;;5094463;28;20030;-68
2023/09/23 06:01:29;;;;;;;4.35;0.90;;;;;;;;;;5094860;28;20016;-69
2023/09/23 06:03:56;;;;;;;1.60;0.95;;;;;;;;;;5094758;28;20027;-68
2023/09/23 06:06:22;;;;;;;2.75;1.02;;;;;;;;;;5094860;28;20016;-69
2023/09/23 06:08:50;;;;;;;3.70;1.17;;;;;;;;;;5094773;28;20024;-68
2023/09/23 06:11:16;;;;;;;1.95;1.15;;;;;;;;;;5094699;28;20020;-68
2023/09/23 06:13:43;;;;;;;10.40;1.15;;;;;;;;;;5075929;28;20537;-69
2023/09/23 06:16:09;;;;;;;6.38;1.50;;;;;;;;;;5094243;28;20035;-68
2023/09/23 06:18:35;;;;;;;3.83;1.10;;;;;;;;;;5094598;28;20028;-69
2023/09/23 06:21:02;;;;;;;4.35;1.10;;;;;;;;;;5094290;28;20469;-69
2023/09/23 06:23:29;;;;;;;4.00;1.30;;;;;;;;;;5094430;28;20023;-69
2023/09/23 06:25:57;;;;;;;3.10;0.98;;;;;;;;;;5093755;28;20020;-69
2023/09/23 06:28:24;;;;;;;2.95;1.10;;;;;;;;;;5093849;28;20096;-68
2023/09/23 06:30:51;;;;;;;4.43;1.17;;;;;;;;;;5094081;28;20024;-69
2023/09/23 06:33:17;;;;;;;6.28;1.55;;;;;;;;;;5075888;28;20032;-68
2023/09/23 06:35:43;;;;;;;4.18;1.42;;;;;;;;;;5093712;28;20105;-69
2023/09/23 06:38:10;;;;;;;5.68;1.30;;;;;;;;;;5094081;28;20028;-69
2023/09/23 06:40:36;;;;;;;7.95;1.35;;;;;;;;;;5093395;28;20024;-68
2023/09/23 06:43:03;;;;;;;6.88;1.33;;;;;;;;;;5094044;28;20461;-68
2023/09/23 06:45:29;;;;;;;4.72;1.50;;;;;;;;;;5093795;28;20534;-68
2023/09/23 06:47:56;;;;;;;3.13;1.30;;;;;;;;;;5093644;28;20510;-69
2023/09/23 06:50:22;;;;;;;2.95;1.13;;;;;;;;;;5093795;28;20020;-68
2023/09/23 06:52:48;;;;;;;6.10;1.30;;;;;;;;;;5093681;28;20084;-68
2023/09/23 06:55:15;;;;;;;3.42;1.17;;;;;;;;;;5093192;28;20490;-68
2023/09/23 06:57:41;;;;;;;4.65;1.45;;;;;;;;;;5093827;28;20028;-69
2023/09/23 07:00:08;;;;;;;3.03;1.48;;;;;;;;;;5093434;28;20487;-69
2023/09/23 07:02:34;;;;;;;10.10;2.00;;;;;;;;;;5093755;28;20046;-68
2023/09/23 07:05:01;;;;;;;4.40;2.65;;;;;;;;;;5093711;28;20032;-69
2023/09/23 07:07:28;;;;;;;6.28;2.65;;;;;;;;;;5093340;28;20030;-69
2023/09/23 07:09:54;;;;;;;4.35;2.53;;;;;;;;;;5093283;28;20020;-69
2023/09/23 07:12:21;;;;;;;4.55;2.80;;;;;;;;;;5093272;28;20024;-69
2023/09/23 07:14:47;;;;;;;6.65;2.63;;;;;;;;;;5075150;28;20040;-68
2023/09/23 07:17:14;;;;;;;6.32;2.60;;;;;;;;;;5075095;28;20032;-69
2023/09/23 07:19:40;;;;;;;4.20;1.83;;;;;;;;;;5093449;28;20027;-69
2023/09/23 07:22:06;;;;;;;3.05;1.85;;;;;;;;;;5093394;28;20035;-69
2023/09/23 07:24:36;;;;;;;6.50;2.05;;;;;;;;;;5092287;28;20370;-69
2023/09/23 07:27:03;;;;;;;3.60;1.80;;;;;;;;;;5093045;28;20076;-68
2023/09/23 07:29:32;;;;;;;5.93;1.70;;;;;;;;;;5093147;28;20034;-69
2023/09/23 07:31:58;;;;;;;4.22;1.85;;;;;;;;;;5093247;28;20022;-69
2023/09/23 07:34:25;;;;;;;3.65;1.90;;;;;;;;;;5092970;28;20038;-68
2023/09/23 07:36:51;;;;;;;4.13;2.00;;;;;;;;;;5092853;28;20034;-69
2023/09/23 07:39:17;;;;;;;6.88;1.58;;;;;;;;;;5092776;28;20026;-69
2023/09/23 07:41:44;;;;;;;3.38;1.80;;;;;;;;;;5092806;28;20023;-69
2023/09/23 07:44:11;;;;;;;3.63;1.50;;;;;;;;;;5092814;28;20403;-68
2023/09/23 07:46:37;;;;;;;6.40;1.85;;;;;;;;;;5092632;28;20034;-68
2023/09/23 07:49:04;;;;;;;4.20;1.70;;;;;;;;;;5074775;28;20027;-69
2023/09/23 07:51:30;;;;;;;4.85;1.90;;;;;;;;;;5092709;28;20020;-69
2023/09/23 07:53:57;;;;;;;4.63;1.50;;;;;;;;;;5092116;28;20044;-68
2023/09/23 07:56:23;;;;;;;3.28;1.70;;;;;;;;;;5092660;28;20387;-69
2023/09/23 07:58:49;;;;;;;6.22;1.58;;;;;;;;;;5092705;28;20073;-68
2023/09/23 08:01:17;;;;;;;6.05;1.50;;;;;;;;;;5092667;28;20024;-68
2023/09/23 08:03:43;;;;;;;10.55;1.30;;;;;;;;;;5092926;28;20020;-69
2023/09/23 08:06:10;;;;;;;5.72;1.40;;;;;;;;;;5074422;28;20395;-69
2023/09/23 08:08:36;;;;;;;6.90;1.63;;;;;;;;;;5092218;28;20023;-69
2023/09/23 08:11:03;;;;;;;5.25;1.50;;;;;;;;;;5092581;28;20024;-69
2023/09/23 08:13:29;;;;;;;5.10;1.25;;;;;;;;;;5092574;28;20012;-69
2023/09/23 08:15:59;;;;;;;4.25;1.25;;;;;;;;;;5092327;28;20507;-69
2023/09/23 08:18:25;;;;;;;3.92;1.10;;;;;;;;;;5092443;28;20388;-69
2023/09/23 08:21:01;;;;;;;3.63;1.17;;;;;;;;;;5074461;28;20034;-69
2023/09/23 08:23:27;;;;;;;2.33;0.80;;;;;;;;;;5092230;28;20392;-69
2023/09/23 08:25:54;;;;;;;3.80;1.30;;;;;;;;;;5092343;28;20024;-69
2023/09/23 08:28:20;;;;;;;4.93;1.17;;;;;;;;;;5092413;28;20038;-69
2023/09/23 08:30:49;;;;;;;3.95;1.13;;;;;;;;;;5092326;28;20046;-69
2023/09/23 08:33:16;;;;;;;3.03;1.10;;;;;;;;;;5092260;28;20396;-69
2023/09/23 08:35:42;;;;;;;4.40;1.10;;;;;;;;;;5092738;28;20043;-69
2023/09/23 08:38:09;;;;;;;2.50;1.00;;;;;;;;;;5095839;28;20030;-69
2023/09/23 08:40:38;;;;;;;4.43;1.40;;;;;;;;;;5096074;28;20032;-69
2023/09/23 08:43:05;;;;;;;4.65;1.20;;;;;;;;;;5096115;28;20073;-69
2023/09/23 08:45:31;;;;;;;5.57;1.10;;;;;;;;;;5096159;28;20027;-69
2023/09/23 08:47:59;;;;;;;4.70;1.27;;;;;;;;;;5095989;28;20024;-69
2023/09/23 08:50:25;;;;;;;3.28;1.30;;;;;;;;;;5096005;28;20469;-69
2023/09/23 08:52:52;;;;;;;3.40;1.00;;;;;;;;;;5095449;28;20024;-69
2023/09/23 08:55:19;;;;;;;3.80;1.10;;;;;;;;;;5095996;28;20481;-69
2023/09/23 08:57:45;;;;;;;4.35;1.00;;;;;;;;;;5096149;28;20028;-69
2023/09/23 09:00:13;;;;;;;3.92;1.42;;;;;;;;;;5096208;28;20050;-69
2023/09/23 09:02:39;;;;;;;3.33;1.02;;;;;;;;;;5095734;28;20009;-69
2023/09/23 09:05:06;;;;;;;4.13;1.10;;;;;;;;;;5095727;28;20028;-69
2023/09/23 09:07:33;;;;;;;7.15;1.02;;;;;;;;;;5095310;28;20054;-69
2023/09/23 09:09:59;;;;;;;5.75;1.30;;;;;;;;;;5095639;28;20032;-69
2023/09/23 09:12:26;;;;;;;3.53;1.05;;;;;;;;;;5095714;28;20092;-69
2023/09/23 09:14:52;;;;;;;4.40;1.23;;;;;;;;;;5095412;28;20442;-69
2023/09/23 09:17:19;;;;;;;3.25;1.60;;;;;;;;;;5095460;28;20016;-69
2023/09/23 09:19:45;;;;;;;3.25;1.20;;;;;;;;;;5095783;28;20036;-69
2023/09/23 09:22:12;;;;;;;5.60;1.60;;;;;;;;;;5095059;28;20483;-69
2023/09/23 09:24:40;;;;;;;6.57;1.30;;;;;;;;;;5095609;28;20023;-69
2023/09/23 09:27:15;;;;;;;2.38;1.08;;;;;;;;;;5095084;28;20477;-69
2023/09/23 09:29:43;;;;;;;5.07;1.35;;;;;;;;;;5095538;28;20026;-69
2023/09/23 09:32:10;;;;;;;2.15;1.00;;;;;;;;;;5095489;28;20085;-69
2023/09/23 09:34:46;;;;;;;3.90;1.00;;;;;;;;;;5094597;28;20032;-69
2023/09/23 09:37:16;;;;;;;2.90;1.23;;;;;;;;;;5095029;28;20392;-69
2023/09/23 09:39:51;;;;;;;4.60;1.13;;;;;;;;;;5095465;28;20031;-69
2023/09/23 09:42:20;;;;;;;3.65;0.93;;;;;;;;;;5095097;28;20020;-69
2023/09/23 09:44:47;;;;;;;2.60;1.00;;;;;;;;;;5095318;28;20019;-69
2023/09/23 09:47:13;;;;;;;3.13;0.75;;;;;;;;;;5094583;28;20028;-69
2023/09/23 09:49:41;;;;;;;3.08;1.02;;;;;;;;;;5094578;28;20016;-69
2023/09/23 09:52:08;;;;;;;2.85;1.00;;;;;;;;;;5094967;28;20519;-69
2023/09/23 09:54:36;;;;;;;2.72;0.88;;;;;;;;;;5094588;28;20040;-69
2023/09/23 09:57:07;;;;;;;4.28;1.10;;;;;;;;;;5095081;28;20036;-69
2023/09/23 09:59:33;;;;;;;2.58;1.30;;;;;;;;;;5094762;28;20012;-69
2023/09/23 10:02:01;;;;;;;1.98;0.88;;;;;;;;;;5094565;28;20542;-69
2023/09/23 10:04:32;;;;;;;4.93;1.15;;;;;;;;;;5094272;28;20485;-69
2023/09/23 10:06:58;;;;;;;4.90;1.05;;;;;;;;;;5094476;28;20506;-69
2023/09/23 10:09:28;;;;;;;4.43;1.10;;;;;;;;;;5094544;28;20023;-69
2023/09/23 10:11:55;;;;;;;5.15;1.63;;;;;;;;;;5076353;28;20028;-69
2023/09/23 10:14:28;;;;;;;5.47;2.20;;;;;;;;;;5094435;28;20492;-69
2023/09/23 10:17:03;;;;;;;4.38;1.48;;;;;;;;;;5094366;28;20031;-69
2023/09/23 10:19:30;;;;;;;4.75;1.63;;;;;;;;;;5094011;28;20034;-69
2023/09/23 10:22:11;;;;;;;2.35;1.33;;;;;;;;;;5094273;28;20022;-69
2023/09/23 10:24:37;;;;;;;;;;;;;;;;;;5094603;28;20020;-69
2023/09/23 10:27:09;;;;;;;3.40;1.20;;;;;;;;;;5094017;28;20349;-69
2023/09/23 10:29:44;;;;;;;3.83;0.85;;;;;;;;;;5094135;28;20032;-69
2023/09/23 10:32:12;;;;;;;4.82;1.20;;;;;;;;;;5094272;28;20023;-67
2023/09/23 10:34:47;;;;;;;4.70;1.20;;;;;;;;;;5093362;28;20388;-69
2023/09/23 10:37:15;;;;;;;3.78;1.25;;;;;;;;;;5093930;28;20388;-69
2023/09/23 10:39:44;;;;;;;3.40;1.30;;;;;;;;;;5094178;28;20024;-69
2023/09/23 10:42:17;;;;;;;3.30;1.23;;;;;;;;;;5093837;28;20034;-69
2023/09/23 10:44:46;;;;;;;1.73;1.02;;;;;;;;;;5093774;28;20396;-69
2023/09/23 10:47:14;;;;;;;1.92;1.20;;;;;;;;;;5093728;28;20026;-69
2023/09/23 10:49:40;;;;;;;5.60;1.73;;;;;;;;;;5093790;28;20451;-69
2023/09/23 10:52:07;;;;;;;4.10;1.25;;;;;;;;;;5075916;28;20024;-69
2023/09/23 10:54:35;;;;;;;5.15;1.35;;;;;;;;;;5093309;28;20398;-69
2023/09/23 10:57:01;;;;;;;5.32;1.35;;;;;;;;;;5093905;28;20030;-69
2023/09/23 10:59:28;;;;;;;4.15;1.45;;;;;;;;;;5092934;28;20018;-69
2023/09/23 11:01:56;;;;;;;3.92;1.17;;;;;;;;;;5093509;28;20024;-69
2023/09/23 11:04:23;;;;;;;4.15;1.30;;;;;;;;;;5075776;28;20027;-69
2023/09/23 11:06:50;;;;;;;2.47;1.05;;;;;;;;;;5075550;28;20046;-69
2023/09/23 11:09:20;;;;;;;8.35;1.23;;;;;;;;;;5093607;28;20030;-69
2023/09/23 11:11:47;;;;;;;3.55;1.02;;;;;;;;;;5093440;28;20024;-69
2023/09/23 11:14:14;;;;;;;3.72;1.10;;;;;;;;;;5093203;28;20113;-69
2023/09/23 11:16:44;;;;;;;6.32;1.20;;;;;;;;;;5092778;28;20374;-69
2023/09/23 11:19:11;;;;;;;3.10;1.10;;;;;;;;;;5093509;28;20020;-69
2023/09/23 11:21:44;;;;;;;3.45;1.30;;;;;;;;;;5093187;28;20030;-69
2023/09/23 11:24:10;;;;;;;4.45;1.55;;;;;;;;;;5093472;28;20034;-69
2023/09/23 11:26:40;;;;;;;2.58;1.15;;;;;;;;;;5092925;28;20387;-69
2023/09/23 11:29:07;;;;;;;4.93;1.30;;;;;;;;;;5093173;28;20016;-69
2023/09/23 11:31:34;;;;;;;1.75;1.27;;;;;;;;;;5092880;28;20028;-69
2023/09/23 11:34:01;;;;;;;2.58;1.00;;;;;;;;;;5092817;28;20024;-69
2023/09/23 11:36:28;;;;;;;2.75;1.17;;;;;;;;;;5092797;28;20036;-69
2023/09/23 11:38:54;;;;;;;5.82;1.30;;;;;;;;;;5092978;28;20024;-69
2023/09/23 11:41:20;;;;;;;3.78;1.45;;;;;;;;;;5092817;28;20024;-69
2023/09/23 11:43:50;;;;;;;2.17;1.02;;;;;;;;;;5093073;28;20020;-69
2023/09/23 11:46:19;;;;;;;3.10;1.30;;;;;;;;;;5092535;28;20028;-69
2023/09/23 11:48:48;;;;;;;3.50;1.35;;;;;;;;;;5092963;28;20020;-68
2023/09/23 11:51:18;;;;;;;2.40;1.40;;;;;;;;;;5092737;28;20026;-68
2023/09/23 11:53:44;;;;;;;2.50;1.23;;;;;;;;;;5092493;28;20040;-68
2023/09/23 11:56:11;;;;;;;3.85;1.10;;;;;;;;;;5092560;28;20375;-67
2023/09/23 11:58:38;;;;;;;3.85;1.50;;;;;;;;;;5092726;28;20461;-67
2023/09/23 12:01:05;;;;;;;3.17;1.42;;;;;;;;;;5092837;28;20030;-69
2023/09/23 12:03:31;;;;;;;2.83;1.25;;;;;;;;;;5092680;28;20031;-69
2023/09/23 12:05:57;;;;;;;3.85;1.40;;;;;;;;;;5092789;28;20028;-69
2023/09/23 12:08:24;;;;;;;4.40;1.48;;;;;;;;;;5092403;28;20024;-69
2023/09/23 12:10:50;;;;;;;4.93;1.33;;;;;;;;;;5095291;28;20026;-69
2023/09/23 12:13:18;;;;;;;1.80;1.00;;;;;;;;;;5078755;28;20369;-69
2023/09/23 12:15:44;;;;;;;3.60;1.20;;;;;;;;;;5096294;28;20043;-69
2023/09/23 12:18:11;;;;;;;2.97;1.38;;;;;;;;;;5096609;28;20020;-69
2023/09/23 12:20:37;;;;;;;4.18;1.45;;;;;;;;;;5096560;28;20034;-69
2023/09/23 12:23:04;;;;;;;3.67;1.30;;;;;;;;;;5096871;28;20035;-69
2023/09/23 12:25:30;;;;;;;3.53;1.40;;;;;;;;;;5096622;28;20485;-69
2023/09/23 12:27:56;;;;;;;2.88;1.50;;;;;;;;;;5078153;28;20469;-69
2023/09/23 12:30:23;;;;;;;11.73;1.30;;;;;;;;;;5096087;28;20030;-69
2023/09/23 12:32:49;;;;;;;2.40;1.05;;;;;;;;;;5096690;28;20034;-69
2023/09/23 12:35:15;;;;;;;2.15;1.20;;;;;;;;;;5096164;28;20507;-69
2023/09/23 12:37:42;;;;;;;2.00;0.98;;;;;;;;;;5096307;28;20031;-69
2023/09/23 12:40:09;;;;;;;2.08;1.05;;;;;;;;;;5096489;28;20032;-69
2023/09/23 12:42:36;;;;;;;2.72;1.40;;;;;;;;;;5096089;28;20016;-69
2023/09/23 12:45:02;;;;;;;2.40;1.27;;;;;;;;;;5095943;28;20024;-69
2023/09/23 12:47:30;;;;;;;1.85;1.25;;;;;;;;;;5096404;28;20020;-69
2023/09/23 12:49:57;;;;;;;2.33;1.08;;;;;;;;;;5078535;28;20057;-69
2023/09/23 12:52:23;;;;;;;2.35;1.40;;;;;;;;;;5096016;28;20024;-69
2023/09/23 12:54:49;;;;;;;6.82;1.30;;;;;;;;;;5095729;28;20044;-69
2023/09/23 12:57:16;;;;;;;2.45;1.30;;;;;;;;;;5077875;28;20373;-69
2023/09/23 12:59:42;;;;;;;2.55;1.10;;;;;;;;;;5095889;28;20147;-69
2023/09/23 13:02:09;;;;;;;2.65;1.00;;;;;;;;;;5096158;28;20020;-68
2023/09/23 13:04:35;;;;;;;1.67;1.17;;;;;;;;;;5095811;28;20019;-67
2023/09/23 13:07:01;;;;;;;2.78;1.40;;;;;;;;;;5095941;28;20036;-68
2023/09/23 13:09:28;;;;;;;1.83;1.00;;;;;;;;;;5095778;28;20018;-68
2023/09/23 13:11:54;;;;;;;1.58;1.20;;;;;;;;;;5095329;28;20028;-68
2023/09/23 13:14:22;;;;;;;2.40;1.02;;;;;;;;;;5095694;28;20024;-68
2023/09/23 13:16:48;;;;;;;2.75;1.35;;;;;;;;;;5095834;28;20032;-67
2023/09/23 13:19:15;;;;;;;3.75;1.30;;;;;;;;;;5095737;28;20042;-70
2023/09/23 13:21:41;;;;;;;2.75;1.30;;;;;;;;;;5095123;28;20080;-69
2023/09/23 13:24:08;;;;;;;2.03;1.30;;;;;;;;;;5095757;28;20090;-69
2023/09/23 13:26:34;;;;;;;3.88;1.25;;;;;;;;;;5094882;28;20032;-69
2023/09/23 13:29:00;;;;;;;1.88;1.23;;;;;;;;;;5095344;28;20491;-69
2023/09/23 13:31:27;;;;;;;3.63;1.55;;;;;;;;;;5095386;28;20024;-69
2023/09/23 13:33:53;;;;;;;2.10;1.38;;;;;;;;;;5095430;28;20054;-69
2023/09/23 13:36:20;;;;;;;3.97;1.10;;;;;;;;;;5094987;28;20044;-69
2023/09/23 13:38:46;;;;;;;1.98;1.27;;;;;;;;;;5095207;28;20461;-69
2023/09/23 13:41:14;;;;;;;1.75;1.17;;;;;;;;;;5094771;28;20038;-69
2023/09/23 13:43:40;;;;;;;2.72;1.20;;;;;;;;;;5077092;28;20016;-69
2023/09/23 13:46:06;;;;;;;4.88;1.48;;;;;;;;;;5094988;28;20036;-69
2023/09/23 13:48:33;;;;;;;2.90;1.48;;;;;;;;;;5094929;28;20031;-69
2023/09/23 13:50:59;;;;;;;3.88;1.60;;;;;;;;;;5095221;28;20024;-69
2023/09/23 13:53:25;;;;;;;1.52;1.27;;;;;;;;;;5094669;28;20058;-70
2023/09/23 13:55:52;;;;;;;2.28;1.50;;;;;;;;;;5094342;28;20397;-70
2023/09/23 13:58:18;;;;;;;1.90;1.40;;;;;;;;;;5094972;28;20027;-69
2023/09/23 14:00:44;;;;;;;3.25;1.38;;;;;;;;;;5094984;28;20028;-70
2023/09/23 14:03:11;;;;;;;2.58;1.60;;;;;;;;;;5094765;28;20404;-68
2023/09/23 14:05:37;;;;;;;2.38;1.73;;;;;;;;;;5076656;28;20480;-68
2023/09/23 14:08:03;;;;;;;2.67;1.38;;;;;;;;;;5094748;28;20027;-68
2023/09/23 14:10:30;;;;;;;2.63;1.40;;;;;;;;;;5094258;28;20492;-68
2023/09/23 14:12:56;;;;;;;2.50;1.60;;;;;;;;;;5094478;28;20016;-69
2023/09/23 14:15:22;;;;;;;2.80;1.50;;;;;;;;;;5094379;28;20040;-69
2023/09/23 14:17:49;;;;;;;4.80;1.50;;;;;;;;;;5094373;28;20048;-69
2023/09/23 14:20:15;;;;;;;6.72;2.00;;;;;;;;;;5076240;28;20028;-69
2023/09/23 14:22:45;;;;;;;4.30;1.48;;;;;;;;;;5076535;28;20028;-69
2023/09/23 14:25:11;;;;;;;2.85;1.52;;;;;;;;;;5093904;28;20023;-69
2023/09/23 14:27:38;;;;;;;3.78;1.95;;;;;;;;;;5094339;28;20020;-69
2023/09/23 14:30:05;;;;;;;2.40;1.58;;;;;;;;;;5094195;28;20023;-69
2023/09/23 14:32:32;;;;;;;3.85;1.90;;;;;;;;;;5094102;28;20380;-69
2023/09/23 14:34:58;;;;;;;3.03;1.63;;;;;;;;;;5092752;28;20393;-69
2023/09/23 14:37:24;;;;;;;2.58;1.58;;;;;;;;;;5094015;28;20016;-69
2023/09/23 14:39:50;;;;;;;3.67;1.60;;;;;;;;;;5094011;28;20032;-69
2023/09/23 14:42:17;;;;;;;4.20;1.55;;;;;;;;;;5094015;28;20079;-69
2023/09/23 14:44:43;;;;;;;2.92;1.50;;;;;;;;;;5093891;28;20035;-69